Time;durP1;ratioP1;P1;durP2;ratioP2;P2;SDS_P1;SDS_P2;PMS_P1;PMS_P2;Temp;Humidity;BMP_temperature;BMP_pressure;BME280_temperature;BME280_humidity;BME280_pressure;Samples;Min_cycle;Max_cycle;Signal;HPM_P1;HPM_P2
2020/12/28 00:00:14;;;;;;;14.83;8.63;;;0.80;99.90;;;;;;5067293;28;20210;-75
2020/12/28 00:02:41;;;;;;;13.33;8.53;;;0.80;99.90;;;;;;5069571;28;20712;-74
2020/12/28 00:05:10;;;;;;;12.97;8.23;;;0.80;99.90;;;;;;5057539;28;20289;-75
2020/12/28 00:07:36;;;;;;;14.83;8.60;;;0.80;99.90;;;;;;5067921;28;20265;-75
2020/12/28 00:10:05;;;;;;;14.77;8.57;;;0.80;99.90;;;;;;5060737;28;20205;-74
2020/12/28 00:12:46;;;;;;;12.67;8.03;;;0.80;99.90;;;;;;5066377;28;20267;-75
2020/12/28 00:15:15;;;;;;;18.43;9.17;;;0.90;99.90;;;;;;5057310;28;20201;-75
2020/12/28 00:17:44;;;;;;;17.20;8.53;;;0.90;99.90;;;;;;5067343;28;20367;-75
2020/12/28 00:20:10;;;;;;;15.50;8.20;;;0.90;99.90;;;;;;5064599;28;20781;-74
2020/12/28 00:22:36;;;;;;;13.63;6.97;;;0.90;99.90;;;;;;5062099;28;20213;-75
2020/12/28 00:25:03;;;;;;;13.00;8.47;;;1.00;99.90;;;;;;5061160;28;20229;-74
2020/12/28 00:27:30;;;;;;;11.63;7.27;;;0.90;99.90;;;;;;5059245;28;20206;-74
2020/12/28 00:29:56;;;;;;;14.70;7.87;;;0.90;99.90;;;;;;5061126;28;20205;-75
2020/12/28 00:32:23;;;;;;;14.57;8.00;;;0.90;99.90;;;;;;5057847;28;20648;-75
2020/12/28 00:34:50;;;;;;;13.27;8.10;;;0.90;99.90;;;;;;5060674;28;20345;-75
2020/12/28 00:37:19;;;;;;;17.07;8.37;;;0.90;99.90;;;;;;5069210;28;20261;-74
2020/12/28 00:39:46;;;;;;;14.93;7.57;;;0.90;99.90;;;;;;5061923;28;20209;-75
2020/12/28 00:42:12;;;;;;;12.77;8.00;;;0.90;99.90;;;;;;5056679;28;20412;-74
2020/12/28 00:44:39;;;;;;;12.33;7.77;;;0.90;99.90;;;;;;5062371;28;20212;-75
2020/12/28 00:47:05;;;;;;;12.17;7.57;;;0.90;99.90;;;;;;5065435;28;20198;-74
2020/12/28 00:49:33;;;;;;;12.67;7.53;;;0.90;99.90;;;;;;5068003;28;20204;-75
2020/12/28 00:51:59;;;;;;;11.13;7.03;;;1.00;99.90;;;;;;5059454;28;20213;-74
2020/12/28 00:54:26;;;;;;;13.20;8.37;;;0.90;99.90;;;;;;5063837;28;20213;-74
2020/12/28 00:56:52;;;;;;;16.10;9.40;;;0.90;99.90;;;;;;5063629;28;20694;-75
2020/12/28 00:59:18;;;;;;;12.23;7.93;;;1.00;99.90;;;;;;5073815;28;20261;-74
2020/12/28 01:01:45;;;;;;;12.87;8.00;;;0.90;99.90;;;;;;5067332;28;20666;-74
2020/12/28 01:04:11;;;;;;;13.60;7.17;;;1.00;99.90;;;;;;5058582;28;20213;-74
2020/12/28 01:06:42;;;;;;;11.37;7.43;;;1.00;99.90;;;;;;5069083;28;20209;-74
2020/12/28 01:09:09;;;;;;;15.23;8.33;;;1.00;99.90;;;;;;5057594;28;20714;-75
2020/12/28 01:11:35;;;;;;;14.17;8.03;;;1.10;99.90;;;;;;5063517;28;20764;-76
2020/12/28 01:14:02;;;;;;;11.80;7.80;;;1.10;99.90;;;;;;5063981;28;20205;-74
2020/12/28 01:16:28;;;;;;;12.80;7.67;;;1.10;99.90;;;;;;5071406;28;20666;-74
2020/12/28 01:18:54;;;;;;;16.40;8.40;;;1.10;99.90;;;;;;5062046;28;20631;-74
2020/12/28 01:21:21;;;;;;;15.07;7.33;;;1.20;99.90;;;;;;5063324;28;20288;-73
2020/12/28 01:23:48;;;;;;;12.30;8.03;;;1.20;99.90;;;;;;5063758;28;20225;-74
2020/12/28 01:26:15;;;;;;;12.47;7.87;;;1.20;99.90;;;;;;5067250;28;20201;-74
2020/12/28 01:28:42;;;;;;;12.40;7.77;;;1.20;99.90;;;;;;5069137;28;20636;-74
2020/12/28 01:31:08;;;;;;;12.87;7.63;;;1.20;99.90;;;;;;5066254;28;20242;-73
2020/12/28 01:33:35;;;;;;;13.83;8.27;;;1.20;99.90;;;;;;5068221;28;20212;-74
2020/12/28 01:36:01;;;;;;;12.60;7.83;;;1.30;99.90;;;;;;5064321;28;20596;-73
2020/12/28 01:38:28;;;;;;;12.97;7.40;;;1.30;99.90;;;;;;5066259;28;20304;-74
2020/12/28 01:40:56;;;;;;;12.07;6.93;;;1.30;99.90;;;;;;5058296;28;20279;-74
2020/12/28 01:43:24;;;;;;;11.97;7.97;;;1.30;99.90;;;;;;5064537;28;20210;-74
2020/12/28 01:45:50;;;;;;;11.77;7.63;;;1.40;99.90;;;;;;5061660;28;20206;-74
2020/12/28 01:48:17;;;;;;;13.73;7.77;;;1.40;99.90;;;;;;5061577;28;20216;-74
2020/12/28 01:50:44;;;;;;;10.53;7.27;;;1.40;99.90;;;;;;5062184;28;20208;-74
2020/12/28 01:53:11;;;;;;;12.43;8.00;;;1.40;99.90;;;;;;5068429;28;20654;-74
2020/12/28 01:55:38;;;;;;;11.90;7.87;;;1.40;99.90;;;;;;5065641;28;20292;-75
2020/12/28 01:58:06;;;;;;;15.67;7.77;;;1.40;99.90;;;;;;5071563;28;20259;-76
2020/12/28 02:00:32;;;;;;;13.43;7.97;;;1.50;99.90;;;;;;5069984;28;20296;-74
2020/12/28 02:02:59;;;;;;;11.90;7.63;;;1.50;99.90;;;;;;5065339;28;20201;-74
2020/12/28 02:05:25;;;;;;;14.70;8.10;;;1.50;99.90;;;;;;5074559;28;20205;-74
2020/12/28 02:07:54;;;;;;;12.10;7.80;;;1.50;99.90;;;;;;5060530;28;20233;-74
2020/12/28 02:10:21;;;;;;;11.20;7.80;;;1.50;99.90;;;;;;5063097;28;20206;-74
2020/12/28 02:12:47;;;;;;;14.17;7.37;;;1.60;99.90;;;;;;5060854;28;20240;-75
2020/12/28 02:15:14;;;;;;;10.70;7.10;;;1.60;99.90;;;;;;5065791;28;20283;-74
2020/12/28 02:17:41;;;;;;;10.83;7.80;;;1.60;99.90;;;;;;5070036;28;20274;-73
2020/12/28 02:20:07;;;;;;;11.67;7.37;;;1.60;99.90;;;;;;5068804;28;20212;-73
2020/12/28 02:22:34;;;;;;;11.47;7.33;;;1.70;99.90;;;;;;5069653;28;20288;-74
2020/12/28 02:25:00;;;;;;;10.53;7.37;;;1.70;99.90;;;;;;5066034;28;20286;-73
2020/12/28 02:27:27;;;;;;;12.90;8.53;;;1.70;99.90;;;;;;5061423;28;20648;-73
2020/12/28 02:29:53;;;;;;;12.47;8.50;;;1.80;99.90;;;;;;5067408;28;20202;-73
2020/12/28 02:32:20;;;;;;;14.17;7.90;;;1.80;99.90;;;;;;5064983;28;20202;-73
2020/12/28 02:34:46;;;;;;;11.30;7.97;;;1.80;99.90;;;;;;5063590;28;20287;-74
2020/12/28 02:37:12;;;;;;;11.97;8.03;;;1.80;99.90;;;;;;5062112;28;20657;-74
2020/12/28 02:39:40;;;;;;;12.77;7.57;;;1.90;99.90;;;;;;5060805;28;20215;-72
2020/12/28 02:42:06;;;;;;;12.40;7.93;;;1.90;99.90;;;;;;5066234;28;20209;-73
2020/12/28 02:44:32;;;;;;;11.60;8.17;;;2.00;99.90;;;;;;5058571;28;20216;-73
2020/12/28 02:46:59;;;;;;;14.23;7.83;;;2.00;99.90;;;;;;5068408;28;20209;-74
2020/12/28 02:49:25;;;;;;;9.67;7.13;;;2.00;99.90;;;;;;5067185;28;20393;-73
2020/12/28 02:51:51;;;;;;;12.23;7.77;;;2.00;99.90;;;;;;5060429;28;20646;-73
2020/12/28 02:54:18;;;;;;;10.90;6.60;;;2.10;99.90;;;;;;5068802;28;20217;-74
2020/12/28 02:56:45;;;;;;;10.77;7.30;;;2.10;99.90;;;;;;5067872;28;20225;-73
2020/12/28 02:59:11;;;;;;;11.63;7.77;;;2.10;99.90;;;;;;5060516;28;20236;-74
2020/12/28 03:01:37;;;;;;;10.77;7.63;;;2.20;99.90;;;;;;5063136;28;20212;-74
2020/12/28 03:04:04;;;;;;;10.67;7.30;;;2.20;99.90;;;;;;5060441;28;20214;-74
2020/12/28 03:06:31;;;;;;;12.17;6.97;;;2.20;99.90;;;;;;5068947;28;20285;-75
2020/12/28 03:08:57;;;;;;;10.40;6.93;;;2.20;99.90;;;;;;5066670;28;20648;-74
2020/12/28 03:11:24;;;;;;;11.90;7.90;;;2.30;99.90;;;;;;5058014;28;20260;-75
2020/12/28 03:13:51;;;;;;;11.90;7.37;;;2.30;99.90;;;;;;5080176;28;20220;-74
2020/12/28 03:16:17;;;;;;;12.60;7.67;;;2.20;99.90;;;;;;5063096;28;20234;-74
2020/12/28 03:18:44;;;;;;;12.73;7.70;;;2.30;99.90;;;;;;5067164;28;20289;-74
2020/12/28 03:21:10;;;;;;;10.53;6.87;;;2.30;99.90;;;;;;5064484;28;20687;-74
2020/12/28 03:23:37;;;;;;;11.13;7.67;;;2.30;99.90;;;;;;5070470;28;20210;-74
2020/12/28 03:26:03;;;;;;;13.87;8.97;;;2.30;99.90;;;;;;5063099;28;20355;-74
2020/12/28 03:28:29;;;;;;;12.10;7.10;;;2.30;99.90;;;;;;5067127;28;20205;-74
2020/12/28 03:30:57;;;;;;;11.30;7.60;;;2.30;99.90;;;;;;5064874;28;20250;-74
2020/12/28 03:33:23;;;;;;;11.87;7.90;;;2.30;99.90;;;;;;5060836;28;20232;-74
2020/12/28 03:35:49;;;;;;;10.43;6.97;;;2.30;99.90;;;;;;5064741;28;20280;-75
2020/12/28 03:38:16;;;;;;;10.93;7.40;;;2.30;99.90;;;;;;5074773;28;20668;-74
2020/12/28 03:40:42;;;;;;;11.27;7.43;;;2.30;99.90;;;;;;5056815;28;20603;-74
2020/12/28 03:43:09;;;;;;;13.37;7.67;;;2.30;99.90;;;;;;5062445;28;20209;-75
2020/12/28 03:45:35;;;;;;;9.60;6.43;;;2.30;99.90;;;;;;5059757;28;20274;-75
2020/12/28 03:48:02;;;;;;;10.67;6.83;;;2.30;99.90;;;;;;5062098;28;20236;-75
2020/12/28 03:50:29;;;;;;;11.87;6.93;;;2.40;99.90;;;;;;5065053;28;20229;-74
2020/12/28 03:52:55;;;;;;;9.73;7.17;;;2.30;99.90;;;;;;5063914;28;20573;-74
2020/12/28 03:55:22;;;;;;;12.67;7.60;;;2.30;99.90;;;;;;5064951;28;20210;-74
2020/12/28 03:57:48;;;;;;;10.77;7.30;;;2.30;99.90;;;;;;5064265;28;20241;-74
2020/12/28 04:00:14;;;;;;;11.43;7.30;;;2.30;99.90;;;;;;5063165;28;20208;-73
2020/12/28 04:02:41;;;;;;;11.50;7.17;;;2.30;99.90;;;;;;5062511;28;20208;-74
2020/12/28 04:05:08;;;;;;;11.53;7.10;;;2.30;99.90;;;;;;5065391;28;20240;-74
2020/12/28 04:07:35;;;;;;;10.57;7.00;;;2.30;99.90;;;;;;5067802;28;20676;-75
2020/12/28 04:10:01;;;;;;;10.77;6.77;;;2.30;99.90;;;;;;5056165;28;20341;-74
2020/12/28 04:12:27;;;;;;;11.77;7.60;;;2.30;99.90;;;;;;5061708;28;20225;-75
2020/12/28 04:14:54;;;;;;;12.03;7.13;;;2.20;99.90;;;;;;5070890;28;20288;-74
2020/12/28 04:17:20;;;;;;;12.57;7.87;;;2.30;99.90;;;;;;5063541;28;20382;-74
2020/12/28 04:19:46;;;;;;;11.43;7.10;;;2.30;99.90;;;;;;5066066;28;20627;-75
2020/12/28 04:22:14;;;;;;;12.03;7.83;;;2.30;99.90;;;;;;5071726;28;20304;-75
2020/12/28 04:24:40;;;;;;;10.47;6.57;;;2.40;99.90;;;;;;5062660;28;20262;-74
2020/12/28 04:27:07;;;;;;;10.97;7.37;;;2.40;99.90;;;;;;5069588;28;20292;-73
2020/12/28 04:29:33;;;;;;;12.57;7.67;;;2.40;99.90;;;;;;5054180;28;20201;-74
2020/12/28 04:31:59;;;;;;;11.37;7.53;;;2.40;99.90;;;;;;5072684;28;20567;-73
2020/12/28 04:34:26;;;;;;;9.37;6.83;;;2.40;99.90;;;;;;5066574;28;20205;-73
2020/12/28 04:36:52;;;;;;;10.63;7.23;;;2.40;99.90;;;;;;5060066;28;20221;-73
2020/12/28 04:39:19;;;;;;;10.47;6.67;;;2.40;99.90;;;;;;5054255;28;20227;-75
2020/12/28 04:41:46;;;;;;;12.93;6.87;;;2.50;99.90;;;;;;5059019;28;20206;-74
2020/12/28 04:44:13;;;;;;;10.83;6.60;;;2.50;99.90;;;;;;5061062;28;20300;-74
2020/12/28 04:46:40;;;;;;;9.13;6.00;;;2.50;99.90;;;;;;5059477;28;20193;-74
2020/12/28 04:49:07;;;;;;;10.67;6.57;;;2.50;99.90;;;;;;5060396;28;20209;-74
2020/12/28 04:51:33;;;;;;;14.67;6.70;;;2.50;99.90;;;;;;5063961;28;20304;-75
2020/12/28 04:54:00;;;;;;;11.30;7.57;;;2.60;99.90;;;;;;5061099;28;20288;-75
2020/12/28 04:56:27;;;;;;;11.77;6.73;;;2.50;99.90;;;;;;5066938;28;20217;-74
2020/12/28 04:58:53;;;;;;;9.50;6.57;;;2.50;99.90;;;;;;5060232;28;20237;-74
2020/12/28 05:01:19;;;;;;;11.77;8.10;;;2.50;99.90;;;;;;5064846;28;20577;-75
2020/12/28 05:03:46;;;;;;;10.50;6.97;;;2.60;99.90;;;;;;5062193;28;20211;-74
2020/12/28 05:06:15;;;;;;;10.53;7.27;;;2.60;99.90;;;;;;5059519;28;20569;-75
2020/12/28 05:08:44;;;;;;;10.40;6.97;;;2.60;99.90;;;;;;5055162;28;20241;-74
2020/12/28 05:11:13;;;;;;;11.20;7.27;;;2.60;99.90;;;;;;5056742;28;20791;-73
2020/12/28 05:13:46;;;;;;;9.07;6.30;;;2.60;99.90;;;;;;5061496;28;20639;-74
2020/12/28 05:16:13;;;;;;;12.00;7.67;;;2.70;99.90;;;;;;5061159;28;20238;-75
2020/12/28 05:18:39;;;;;;;10.40;6.57;;;2.70;99.90;;;;;;5063214;28;20197;-74
2020/12/28 05:21:05;;;;;;;11.13;7.03;;;2.70;99.90;;;;;;5059162;28;20234;-75
2020/12/28 05:23:32;;;;;;;11.00;7.17;;;2.80;99.90;;;;;;5057636;28;20259;-75
2020/12/28 05:25:59;;;;;;;10.17;7.07;;;2.80;99.90;;;;;;5060992;28;20677;-74
2020/12/28 05:28:27;;;;;;;9.43;6.73;;;2.80;99.90;;;;;;5066055;28;20212;-74
2020/12/28 05:30:59;;;;;;;11.37;7.53;;;2.80;99.90;;;;;;5062183;28;20253;-73
2020/12/28 05:33:31;;;;;;;10.00;6.87;;;2.80;99.90;;;;;;5063493;28;20206;-74
2020/12/28 05:35:58;;;;;;;11.67;7.03;;;2.80;99.90;;;;;;5068273;28;20280;-74
2020/12/28 05:38:26;;;;;;;10.27;7.33;;;2.80;99.90;;;;;;5058403;28;20206;-74
2020/12/28 05:41:01;;;;;;;11.67;7.43;;;2.90;99.90;;;;;;5063004;28;20209;-73
2020/12/28 05:43:28;;;;;;;12.70;6.90;;;2.90;99.90;;;;;;5060589;28;20241;-74
2020/12/28 05:45:55;;;;;;;11.07;7.17;;;2.90;99.90;;;;;;5062741;28;20584;-74
2020/12/28 05:48:24;;;;;;;7.77;6.30;;;2.90;99.90;;;;;;5060833;28;20216;-73
2020/12/28 05:50:56;;;;;;;13.83;7.63;;;2.90;99.90;;;;;;5065648;28;20224;-73
2020/12/28 05:53:24;;;;;;;10.47;7.07;;;2.90;99.90;;;;;;5063548;28;20206;-73
2020/12/28 05:55:51;;;;;;;10.43;7.43;;;3.00;99.90;;;;;;5067950;28;20272;-73
2020/12/28 05:58:19;;;;;;;12.03;7.33;;;3.00;99.90;;;;;;5058120;28;20226;-73
2020/12/28 06:00:46;;;;;;;11.13;7.83;;;3.00;99.90;;;;;;5058836;28;20206;-73
2020/12/28 06:03:22;;;;;;;9.70;6.97;;;3.00;99.90;;;;;;5063636;28;20209;-74
2020/12/28 06:05:52;;;;;;;11.00;7.40;;;3.00;99.90;;;;;;5069060;28;20198;-73
2020/12/28 06:08:18;;;;;;;12.27;7.60;;;3.10;99.90;;;;;;5062829;28;20238;-73
2020/12/28 06:10:45;;;;;;;12.40;8.13;;;3.10;99.90;;;;;;5058452;28;20202;-72
2020/12/28 06:13:21;;;;;;;12.27;7.27;;;3.10;99.90;;;;;;5061289;28;20225;-74
2020/12/28 06:15:58;;;;;;;10.33;7.30;;;3.10;99.90;;;;;;5064838;28;20698;-74
2020/12/28 06:18:25;;;;;;;12.00;7.23;;;3.10;99.90;;;;;;5065088;28;20557;-74
2020/12/28 06:20:55;;;;;;;14.27;7.77;;;3.10;99.90;;;;;;5071258;28;20726;-74
2020/12/28 06:23:25;;;;;;;11.27;7.37;;;3.20;99.90;;;;;;5071224;28;20209;-75
2020/12/28 06:25:55;;;;;;;12.70;7.97;;;3.20;99.90;;;;;;5069697;28;20735;-75
2020/12/28 06:28:25;;;;;;;11.43;7.00;;;3.20;99.90;;;;;;5070047;28;20220;-74
2020/12/28 06:30:52;;;;;;;11.33;7.37;;;3.20;99.90;;;;;;5058705;28;20198;-74
2020/12/28 06:33:18;;;;;;;13.00;8.03;;;3.20;99.90;;;;;;5064642;28;20722;-74
2020/12/28 06:35:45;;;;;;;13.43;8.57;;;3.10;99.90;;;;;;5060786;28;20204;-74
2020/12/28 06:38:12;;;;;;;11.80;8.13;;;3.10;99.90;;;;;;5058235;28;20226;-74
2020/12/28 06:40:39;;;;;;;10.80;7.40;;;3.10;99.90;;;;;;5058922;28;20259;-74
2020/12/28 06:43:10;;;;;;;13.93;8.37;;;3.10;99.90;;;;;;5056174;28;20212;-74
2020/12/28 06:45:37;;;;;;;13.00;8.17;;;3.10;99.90;;;;;;5056377;28;20263;-74
2020/12/28 06:48:04;;;;;;;13.30;8.63;;;3.10;99.90;;;;;;5056960;28;20206;-73
2020/12/28 06:50:30;;;;;;;13.60;8.37;;;3.10;99.90;;;;;;5061206;28;20384;-74
2020/12/28 06:52:58;;;;;;;13.27;7.77;;;3.10;99.90;;;;;;5061851;28;20233;-74
2020/12/28 06:55:24;;;;;;;11.10;8.13;;;3.10;99.90;;;;;;5069101;28;20268;-74
2020/12/28 06:57:51;;;;;;;13.60;7.90;;;3.00;99.90;;;;;;5067864;28;20770;-74
2020/12/28 07:00:20;;;;;;;14.97;8.80;;;3.10;99.90;;;;;;5065507;28;20706;-74
2020/12/28 07:02:50;;;;;;;11.97;8.50;;;3.10;99.90;;;;;;5062722;28;20207;-74
2020/12/28 07:05:21;;;;;;;12.27;8.60;;;3.10;99.90;;;;;;5068945;28;20205;-74
2020/12/28 07:07:47;;;;;;;13.73;8.60;;;3.10;99.90;;;;;;5065766;28;20325;-75
2020/12/28 07:10:20;;;;;;;13.40;8.57;;;3.10;99.90;;;;;;5061335;28;20248;-75
2020/12/28 07:12:47;;;;;;;12.23;7.77;;;3.10;99.90;;;;;;5064735;28;20236;-75
2020/12/28 07:15:15;;;;;;;13.70;8.83;;;3.10;99.90;;;;;;5068845;28;20213;-75
2020/12/28 07:17:42;;;;;;;12.50;8.10;;;3.30;99.90;;;;;;5068723;28;20231;-75
2020/12/28 07:20:12;;;;;;;10.67;7.97;;;3.10;99.90;;;;;;5080843;28;20291;-75
2020/12/28 07:22:39;;;;;;;12.73;8.87;;;3.10;99.90;;;;;;5075216;28;20213;-76
2020/12/28 07:25:07;;;;;;;13.83;8.87;;;3.10;99.90;;;;;;5074317;28;20205;-75
2020/12/28 07:27:35;;;;;;;14.53;8.40;;;3.10;99.90;;;;;;5074721;28;20684;-75
2020/12/28 07:30:06;;;;;;;14.43;8.80;;;3.10;99.90;;;;;;5074944;28;20227;-74
2020/12/28 07:32:32;;;;;;;14.10;8.80;;;3.20;99.90;;;;;;5076079;28;20715;-73
2020/12/28 07:34:59;;;;;;;13.43;8.73;;;3.20;99.90;;;;;;5075104;28;20570;-73
2020/12/28 07:37:28;;;;;;;12.03;8.40;;;3.20;99.90;;;;;;5075202;28;20289;-73
2020/12/28 07:39:55;;;;;;;13.37;8.43;;;3.20;99.90;;;;;;5075457;28;20209;-73
2020/12/28 07:42:23;;;;;;;11.53;7.80;;;3.20;99.90;;;;;;5072148;28;20208;-73
2020/12/28 07:45:01;;;;;;;13.23;8.43;;;3.20;99.90;;;;;;5075432;28;20212;-74
2020/12/28 07:47:37;;;;;;;12.93;8.47;;;3.20;99.90;;;;;;5077369;28;20607;-75
2020/12/28 07:50:06;;;;;;;12.47;8.37;;;3.20;99.90;;;;;;5082240;28;20220;-73
2020/12/28 07:52:45;;;;;;;13.67;8.37;;;3.30;99.90;;;;;;5076502;28;20201;-76
2020/12/28 07:55:17;;;;;;;11.17;8.17;;;3.30;99.90;;;;;;5075020;28;20289;-75
2020/12/28 07:57:56;;;;;;;13.87;8.40;;;3.40;99.90;;;;;;5073923;28;20689;-75
2020/12/28 08:00:30;;;;;;;13.47;9.03;;;3.50;99.90;;;;;;5075429;28;20265;-77
2020/12/28 08:03:13;;;;;;;12.23;8.80;;;3.60;99.90;;;;;;5075475;28;20287;-75
2020/12/28 08:05:40;;;;;;;13.30;8.37;;;3.60;99.90;;;;;;5074558;28;20259;-74
2020/12/28 08:08:06;;;;;;;12.40;8.53;;;3.70;99.90;;;;;;5070758;28;20269;-74
2020/12/28 08:10:33;;;;;;;14.07;8.53;;;3.70;99.90;;;;;;5068425;28;20211;-72
2020/12/28 08:12:59;;;;;;;13.70;8.43;;;3.70;99.90;;;;;;5075701;28;20316;-74
2020/12/28 08:15:28;;;;;;;12.13;8.03;;;3.70;99.90;;;;;;5079014;28;20239;-73
2020/12/28 08:18:05;;;;;;;16.20;8.63;;;3.60;99.90;;;;;;5080692;28;20308;-75
2020/12/28 08:20:32;;;;;;;12.33;7.97;;;3.60;99.90;;;;;;5063974;28;20215;-74
2020/12/28 08:22:58;;;;;;;10.03;7.93;;;3.60;99.90;;;;;;5074393;28;20232;-74
2020/12/28 08:25:27;;;;;;;12.17;8.20;;;3.60;99.90;;;;;;5079560;28;20319;-72
2020/12/28 08:27:56;;;;;;;11.97;8.30;;;3.70;99.90;;;;;;5076163;28;20654;-73
2020/12/28 08:30:25;;;;;;;11.83;8.17;;;3.80;99.90;;;;;;5073809;28;20680;-70
2020/12/28 08:32:52;;;;;;;11.70;8.80;;;3.90;99.90;;;;;;5074050;28;20205;-72
2020/12/28 08:35:19;;;;;;;12.80;8.77;;;4.00;99.90;;;;;;5071319;28;20292;-72
2020/12/28 08:37:49;;;;;;;10.50;7.60;;;4.20;99.90;;;;;;5074002;28;20221;-72
2020/12/28 08:40:17;;;;;;;13.90;9.23;;;4.20;99.90;;;;;;5074305;28;20303;-74
2020/12/28 08:42:44;;;;;;;15.57;8.57;;;4.20;99.90;;;;;;5073660;28;20241;-73
2020/12/28 08:45:19;;;;;;;12.47;7.97;;;4.20;99.90;;;;;;5073469;28;20211;-74
2020/12/28 08:47:45;;;;;;;13.13;8.27;;;4.30;99.90;;;;;;5066201;28;20279;-73
2020/12/28 08:50:15;;;;;;;11.93;7.40;;;4.30;99.90;;;;;;5072069;28;20284;-74
2020/12/28 08:52:48;;;;;;;11.00;8.23;;;4.30;99.90;;;;;;5073604;28;20343;-72
2020/12/28 08:55:15;;;;;;;12.10;8.30;;;4.30;99.90;;;;;;5072674;28;20288;-72
2020/12/28 08:57:41;;;;;;;13.37;8.10;;;4.50;99.90;;;;;;5068004;28;20270;-73
2020/12/28 09:00:08;;;;;;;12.53;8.00;;;4.60;99.90;;;;;;5077363;28;20299;-72
2020/12/28 09:02:38;;;;;;;13.47;8.50;;;4.70;99.90;;;;;;5073313;28;20296;-72
2020/12/28 09:05:04;;;;;;;11.63;7.73;;;4.70;99.90;;;;;;5072179;28;20237;-74
2020/12/28 09:07:31;;;;;;;12.20;8.00;;;4.70;99.90;;;;;;5067282;28;20212;-73
2020/12/28 09:09:58;;;;;;;9.67;7.07;;;5.30;99.90;;;;;;5068205;28;20691;-72
2020/12/28 09:12:24;;;;;;;10.77;7.27;;;5.90;99.90;;;;;;5069540;28;20229;-74
2020/12/28 09:14:50;;;;;;;10.77;7.83;;;6.50;99.90;;;;;;5077775;28;20320;-73
2020/12/28 09:17:17;;;;;;;15.57;8.07;;;6.70;99.90;;;;;;5077192;28;20264;-73
2020/12/28 09:19:44;;;;;;;12.07;8.00;;;6.70;99.90;;;;;;5084515;28;20334;-75
2020/12/28 09:22:10;;;;;;;11.10;7.20;;;6.70;99.90;;;;;;5072193;28;20220;-73
2020/12/28 09:24:38;;;;;;;13.10;8.50;;;6.60;99.90;;;;;;5076180;28;20292;-73
2020/12/28 09:27:04;;;;;;;10.10;7.47;;;6.50;99.90;;;;;;5072276;28;20714;-74
2020/12/28 09:29:31;;;;;;;11.17;7.60;;;6.40;99.90;;;;;;5070304;28;20566;-73
2020/12/28 09:31:57;;;;;;;10.17;7.20;;;6.30;99.90;;;;;;5074173;28;20252;-73
2020/12/28 09:34:24;;;;;;;9.87;7.40;;;6.30;99.90;;;;;;5074318;28;20364;-74
2020/12/28 09:36:59;;;;;;;10.53;7.17;;;6.30;99.90;;;;;;5075881;28;20232;-73
2020/12/28 09:39:25;;;;;;;10.00;7.57;;;6.30;99.90;;;;;;5069339;28;20209;-73
2020/12/28 09:41:53;;;;;;;11.07;7.30;;;6.20;99.90;;;;;;5076782;28;20227;-74
2020/12/28 09:44:19;;;;;;;10.77;7.23;;;6.90;99.90;;;;;;5077820;28;20609;-73
2020/12/28 09:46:46;;;;;;;9.37;7.17;;;8.80;99.90;;;;;;5079777;28;20722;-74
2020/12/28 09:49:12;;;;;;;9.03;6.90;;;10.40;99.90;;;;;;5070894;28;20209;-73
2020/12/28 09:51:39;;;;;;;11.00;7.70;;;11.80;99.90;;;;;;5075825;28;20288;-74
2020/12/28 09:54:05;;;;;;;9.80;6.67;;;13.20;97.90;;;;;;5074308;28;20297;-74
2020/12/28 09:56:31;;;;;;;10.07;6.70;;;14.30;89.40;;;;;;5073003;28;20294;-74
2020/12/28 09:58:59;;;;;;;9.73;6.60;;;14.90;82.10;;;;;;5075459;28;20202;-74
2020/12/28 10:01:25;;;;;;;8.03;5.90;;;15.40;73.90;;;;;;5076231;28;20300;-74
2020/12/28 10:03:52;;;;;;;9.43;6.63;;;15.80;68.60;;;;;;5079176;28;20296;-74
2020/12/28 10:06:34;;;;;;;8.10;6.53;;;15.20;64.90;;;;;;5076876;28;20304;-74
2020/12/28 10:09:01;;;;;;;7.77;6.73;;;14.10;66.00;;;;;;5075945;28;20255;-74
2020/12/28 10:11:28;;;;;;;9.37;7.37;;;12.80;70.80;;;;;;5075075;28;20218;-74
2020/12/28 10:13:54;;;;;;;12.10;7.43;;;12.00;79.80;;;;;;5076319;28;20303;-74
2020/12/28 10:16:24;;;;;;;10.70;6.63;;;12.90;96.00;;;;;;5076450;28;20946;-74
2020/12/28 10:18:50;;;;;;;9.07;6.93;;;15.00;82.00;;;;;;5079577;28;20201;-73
2020/12/28 10:21:17;;;;;;;9.10;6.70;;;16.50;69.00;;;;;;5075302;28;20647;-75
2020/12/28 10:23:43;;;;;;;9.17;6.63;;;18.00;60.00;;;;;;5072317;28;20320;-73
2020/12/28 10:26:16;;;;;;;10.00;6.70;;;18.90;56.90;;;;;;5071729;28;20832;-74
2020/12/28 10:28:42;;;;;;;9.10;6.67;;;19.90;53.20;;;;;;5072506;28;20201;-74
2020/12/28 10:31:10;;;;;;;9.90;6.45;;;20.40;51.00;;;;;;5075484;28;20236;-74
2020/12/28 10:33:38;;;;;;;7.95;6.50;;;20.60;50.70;;;;;;5072434;28;20300;-74
2020/12/28 10:36:05;;;;;;;7.47;5.22;;;21.10;49.80;;;;;;5072107;28;20201;-73
2020/12/28 10:38:32;;;;;;;8.00;5.55;;;20.90;47.10;;;;;;5073923;28;20660;-74
2020/12/28 10:40:59;;;;;;;5.70;4.93;;;20.20;48.60;;;;;;5071472;28;20293;-74
2020/12/28 10:43:25;;;;;;;7.95;6.18;;;19.90;49.40;;;;;;5076657;28;20208;-73
2020/12/28 10:45:51;;;;;;;6.23;5.37;;;19.10;47.90;;;;;;5074985;28;20234;-73
2020/12/28 10:48:17;;;;;;;6.57;5.83;;;17.60;49.20;;;;;;5071462;28;20204;-73
2020/12/28 10:50:45;;;;;;;8.53;6.50;;;15.90;52.30;;;;;;5073858;28;20324;-73
2020/12/28 10:53:11;;;;;;;6.97;5.80;;;14.30;55.40;;;;;;5068364;28;20292;-73
2020/12/28 10:55:38;;;;;;;7.40;5.60;;;13.00;58.50;;;;;;5070760;28;20201;-73
2020/12/28 10:58:04;;;;;;;6.03;5.17;;;12.10;62.80;;;;;;5073096;28;20315;-74
2020/12/28 11:00:31;;;;;;;8.13;5.87;;;11.40;65.80;;;;;;5072054;28;20627;-74
2020/12/28 11:02:58;;;;;;;8.47;6.03;;;10.70;69.80;;;;;;5074033;28;20639;-74
2020/12/28 11:05:25;;;;;;;7.77;5.70;;;10.20;74.10;;;;;;5073433;28;20212;-75
2020/12/28 11:07:52;;;;;;;9.40;6.10;;;9.70;80.60;;;;;;5074537;28;20635;-74
2020/12/28 11:10:18;;;;;;;9.00;6.43;;;9.10;87.40;;;;;;5074017;28;20228;-75
2020/12/28 11:12:45;;;;;;;8.00;5.90;;;8.70;92.00;;;;;;5068827;28;20251;-74
2020/12/28 11:15:11;;;;;;;8.33;5.60;;;8.30;95.80;;;;;;5071802;28;20205;-74
2020/12/28 11:17:38;;;;;;;7.13;5.10;;;8.00;99.30;;;;;;5071468;28;20301;-74
2020/12/28 11:20:04;;;;;;;7.47;5.60;;;7.80;99.90;;;;;;5079901;28;20682;-74
2020/12/28 11:22:30;;;;;;;7.20;5.43;;;7.70;99.90;;;;;;5078085;28;20265;-76
2020/12/28 11:24:58;;;;;;;7.83;6.00;;;7.40;99.90;;;;;;5086112;28;20553;-75
2020/12/28 11:27:26;;;;;;;11.97;7.73;;;7.20;99.90;;;;;;5085018;28;20722;-75
2020/12/28 11:29:53;;;;;;;9.77;6.27;;;7.00;99.90;;;;;;5078398;28;20216;-74
2020/12/28 11:32:20;;;;;;;10.97;6.53;;;6.90;99.90;;;;;;5078420;28;20695;-74
2020/12/28 11:34:47;;;;;;;8.13;4.70;;;6.80;99.90;;;;;;5070602;28;20291;-74
2020/12/28 11:37:15;;;;;;;7.47;5.53;;;6.60;99.90;;;;;;5079396;28;20233;-73
2020/12/28 11:39:42;;;;;;;9.07;5.73;;;6.50;99.90;;;;;;5067523;28;20301;-75
2020/12/28 11:42:10;;;;;;;9.97;6.43;;;6.50;99.90;;;;;;5079044;28;20366;-74
2020/12/28 11:44:36;;;;;;;9.17;5.70;;;6.40;99.90;;;;;;5075287;28;20209;-75
2020/12/28 11:47:03;;;;;;;9.93;6.60;;;6.30;99.90;;;;;;5072806;28;20250;-76
2020/12/28 11:49:29;;;;;;;10.30;6.67;;;6.30;99.90;;;;;;5066420;28;20622;-75
2020/12/28 11:51:56;;;;;;;8.13;5.83;;;6.20;99.90;;;;;;5061230;28;20212;-74
2020/12/28 11:54:23;;;;;;;8.40;6.30;;;6.10;99.90;;;;;;5075193;28;20270;-75
2020/12/28 11:56:49;;;;;;;8.60;6.10;;;6.10;99.90;;;;;;5061051;28;20309;-74
2020/12/28 11:59:16;;;;;;;9.47;6.30;;;6.10;99.90;;;;;;5066193;28;20300;-73
2020/12/28 12:01:47;;;;;;;9.27;6.47;;;6.20;99.90;;;;;;5064284;28;20231;-74
2020/12/28 12:04:14;;;;;;;8.80;6.30;;;6.20;99.90;;;;;;5065019;28;20210;-74
2020/12/28 12:06:40;;;;;;;9.73;5.87;;;6.20;99.90;;;;;;5061182;28;20211;-75
2020/12/28 12:09:12;;;;;;;8.70;6.07;;;6.20;99.90;;;;;;5064647;28;20665;-72
2020/12/28 12:11:46;;;;;;;7.43;5.30;;;6.20;99.90;;;;;;5067309;28;20221;-75
2020/12/28 12:14:14;;;;;;;8.63;5.20;;;6.20;99.90;;;;;;5074328;28;20208;-74
2020/12/28 12:16:41;;;;;;;9.00;5.27;;;6.20;99.90;;;;;;5073004;28;20292;-75
2020/12/28 12:19:08;;;;;;;8.80;4.97;;;6.20;99.90;;;;;;5071215;28;20634;-76
2020/12/28 12:21:34;;;;;;;9.33;5.23;;;6.20;99.90;;;;;;5073080;28;20241;-76
2020/12/28 12:24:00;;;;;;;6.43;5.10;;;6.20;99.90;;;;;;5073171;28;20296;-76
2020/12/28 12:26:27;;;;;;;8.10;5.50;;;6.20;99.90;;;;;;5069808;28;20206;-74
2020/12/28 12:28:55;;;;;;;6.67;4.93;;;6.20;99.90;;;;;;5067128;28;20209;-75
2020/12/28 12:31:22;;;;;;;8.33;4.90;;;6.30;99.90;;;;;;5072226;28;20236;-74
2020/12/28 12:33:49;;;;;;;6.57;4.80;;;6.30;99.90;;;;;;5074165;28;20721;-72
2020/12/28 12:36:16;;;;;;;7.63;5.00;;;6.40;99.90;;;;;;5061000;28;20208;-74
2020/12/28 12:38:43;;;;;;;8.20;5.67;;;6.40;99.90;;;;;;5063035;28;20232;-74
2020/12/28 12:41:13;;;;;;;5.93;4.47;;;6.40;99.90;;;;;;5064186;28;20253;-72
2020/12/28 12:43:40;;;;;;;6.37;5.17;;;6.50;99.90;;;;;;5077803;28;20223;-73
2020/12/28 12:46:08;;;;;;;5.93;4.73;;;6.50;99.90;;;;;;5078744;28;20799;-74
2020/12/28 12:48:35;;;;;;;6.73;4.50;;;6.60;99.90;;;;;;5076503;28;20203;-74